Time;durP1;ratioP1;P1;durP2;ratioP2;P2;SDS_P1;SDS_P2;PMS_P1;PMS_P2;Temp;Humidity;BMP_temperature;BMP_pressure;BME280_temperature;BME280_humidity;BME280_pressure;Samples;Min_cycle;Max_cycle;Signal;HPM_P1;HPM_P2
2021/04/02 05:27:52;;;;;;;36.25;17.67;;;4.30;99.90;;;5.40;88.19;101427.16;5022240;28;20050;-88
2021/04/02 05:30:19;;;;;;;30.38;15.25;;;4.30;99.90;;;5.37;87.77;101422.25;5022526;28;20036;-89
2021/04/02 05:32:45;;;;;;;33.95;16.73;;;4.30;99.90;;;5.39;88.69;101425.53;5023488;28;20057;-89
2021/04/02 05:35:11;;;;;;;32.70;16.88;;;4.30;99.90;;;5.42;88.32;101427.69;5022846;28;20030;-89
2021/04/02 05:37:38;;;;;;;35.60;16.80;;;4.30;99.90;;;5.45;88.24;101424.31;5021326;28;20022;-88
2021/04/02 05:40:05;;;;;;;40.88;16.85;;;4.30;99.90;;;5.53;88.27;101433.84;5020891;28;20053;-85
2021/04/02 05:42:40;;;;;;;29.88;15.68;;;4.40;99.90;;;5.54;88.65;101441.88;5018964;28;20133;-90
2021/04/02 05:45:09;;;;;;;39.88;17.77;;;4.50;99.90;;;5.61;88.76;101439.53;5048999;22;20045;-83
2021/04/02 05:47:41;;;;;;;47.70;18.52;;;4.50;99.90;;;5.64;88.59;101447.22;5033088;28;20025;-84
2021/04/02 05:50:10;;;;;;;53.60;22.67;;;4.50;99.90;;;5.68;88.31;101433.59;5032710;28;20025;-84
2021/04/02 05:52:40;;;;;;;58.47;25.73;;;4.50;99.90;;;5.78;87.44;101445.28;5034616;28;20059;-86
2021/04/02 05:55:11;;;;;;;46.58;19.73;;;4.60;99.90;;;5.73;88.02;101439.03;5018573;28;20038;-85
2021/04/02 05:57:38;;;;;;;46.90;20.08;;;4.60;99.90;;;5.77;88.03;101440.88;5014983;28;20025;-86
2021/04/02 06:00:06;;;;;;;45.42;20.70;;;4.60;99.90;;;5.89;87.56;101442.34;5013174;28;20129;-84
2021/04/02 06:02:33;;;;;;;57.58;22.48;;;4.70;99.90;;;5.90;87.86;101439.28;5029994;28;20084;-83
2021/04/02 06:05:01;;;;;;;57.60;25.45;;;4.70;99.90;;;5.95;87.61;101439.16;5014231;28;20030;-84
2021/04/02 06:07:26;;;;;;;44.17;17.38;;;4.70;99.90;;;5.95;87.37;101441.94;5013231;28;20049;-83
2021/04/02 06:09:52;;;;;;;65.88;24.67;;;4.70;99.90;;;5.96;87.50;101451.09;5013510;28;20474;-81
2021/04/02 06:12:26;;;;;;;53.47;23.25;;;4.70;99.90;;;5.95;87.49;101443.88;5015655;28;20026;-82
2021/04/02 06:14:52;;;;;;;39.83;17.42;;;4.80;99.90;;;6.04;87.04;101439.25;5017369;28;20041;-83
2021/04/02 06:17:19;;;;;;;54.25;22.88;;;4.80;99.90;;;5.95;87.20;101449.44;5020745;28;20030;-83
2021/04/02 06:20:01;;;;;;;38.05;17.13;;;4.80;99.90;;;5.96;86.62;101440.81;5014861;28;20048;-83
2021/04/02 06:22:27;;;;;;;47.42;21.58;;;4.80;99.90;;;5.97;86.75;101447.19;5012921;28;20037;-82
2021/04/02 06:24:53;;;;;;;43.25;20.08;;;4.80;99.90;;;6.02;87.11;101450.69;5012890;28;20030;-83
2021/04/02 06:27:18;;;;;;;45.63;18.70;;;4.80;99.90;;;6.08;86.25;101454.16;5013735;28;20502;-82
2021/04/02 06:30:02;;;;;;;92.70;34.58;;;4.80;99.90;;;6.02;86.30;101459.00;5015641;28;20060;-83
2021/04/02 06:32:37;;;;;;;114.20;44.78;;;4.90;99.90;;;5.91;86.31;101457.53;5016269;28;20025;-83
2021/04/02 06:35:11;;;;;;;135.60;55.05;;;4.80;99.90;;;5.84;86.39;101457.91;5014695;28;20049;-83
2021/04/02 06:37:38;;;;;;;128.95;49.30;;;4.80;99.90;;;5.84;86.53;101462.66;5015574;28;20053;-84
2021/04/02 06:40:20;;;;;;;88.65;37.15;;;4.80;99.90;;;6.02;86.09;101467.31;5014251;28;20397;-83
2021/04/02 06:42:47;;;;;;;53.42;23.60;;;4.90;99.90;;;6.08;86.01;101474.41;5014527;28;20034;-84
2021/04/02 06:45:15;;;;;;;27.67;13.57;;;4.90;99.90;;;6.09;85.66;101470.50;5012624;28;20410;-82
2021/04/02 06:47:44;;;;;;;20.67;10.70;;;4.90;99.90;;;5.93;85.54;101471.94;5014682;28;20022;-84
2021/04/02 06:50:26;;;;;;;18.50;10.85;;;4.80;99.90;;;5.90;86.11;101478.09;5013328;28;20080;-84
2021/04/02 06:52:57;;;;;;;23.02;11.52;;;4.80;99.90;;;5.85;86.40;101472.59;5013243;28;20037;-84
2021/04/02 06:55:26;;;;;;;41.55;16.92;;;4.70;99.90;;;5.80;86.57;101479.09;5013455;28;20504;-83
2021/04/02 06:57:55;;;;;;;28.67;15.15;;;4.70;99.90;;;5.85;86.55;101475.38;5013796;28;20497;-82
2021/04/02 07:00:28;;;;;;;28.67;14.35;;;4.80;99.90;;;5.90;86.94;101482.81;5013008;28;20034;-84
2021/04/02 07:02:54;;;;;;;23.20;12.85;;;4.80;99.90;;;5.95;86.51;101479.94;5014317;28;20038;-84
2021/04/02 07:05:26;;;;;;;31.52;15.80;;;4.80;99.90;;;5.93;86.08;101485.81;5015125;28;20026;-84
2021/04/02 07:08:04;;;;;;;22.15;13.25;;;4.80;99.90;;;5.89;86.62;101483.94;5007830;28;20085;-82
2021/04/02 07:10:39;;;;;;;36.78;19.90;;;4.80;99.90;;;5.87;86.60;101487.03;4993517;28;20073;-83
2021/04/02 07:13:09;;;;;;;26.13;12.63;;;4.80;99.90;;;5.86;86.59;101485.38;4994755;28;20031;-83
2021/04/02 07:15:38;;;;;;;28.23;14.25;;;4.80;99.90;;;5.91;86.53;101479.72;4994460;28;20289;-84
2021/04/02 07:19:27;;;;;;;;;;;;;;;;;;;;;
2021/04/02 07:21:55;;;;;;;30.45;12.10;;;4.80;99.90;;;5.96;86.35;101484.34;4995939;28;20090;-83
2021/04/02 07:24:24;;;;;;;23.40;11.38;;;4.80;99.90;;;6.04;86.66;101489.16;4994313;28;20061;-84
2021/04/02 07:26:51;;;;;;;26.10;10.73;;;4.80;99.90;;;5.93;86.70;101490.53;4997540;28;20053;-83
2021/04/02 07:29:23;;;;;;;24.95;13.30;;;4.80;99.90;;;6.03;86.67;101487.56;4998254;28;20034;-83
2021/04/02 07:31:51;;;;;;;26.13;13.23;;;4.90;99.90;;;6.03;87.02;101487.56;4997227;28;20114;-83
2021/04/02 07:34:19;;;;;;;25.02;13.13;;;4.90;99.90;;;6.10;86.84;101487.97;4997982;28;20026;-83
2021/04/02 07:37:44;;;;;;;22.80;11.65;;;5.00;99.90;;;6.20;85.94;101487.75;4999374;28;20030;-83
2021/04/02 07:40:12;;;;;;;25.95;12.85;;;5.00;99.90;;;6.23;85.70;101490.72;4996970;28;20038;-83
2021/04/02 07:42:38;;;;;;;23.35;12.82;;;5.10;99.90;;;6.29;85.84;101495.03;4996730;28;20092;-85
2021/04/02 07:45:07;;;;;;;31.15;14.23;;;5.10;99.90;;;6.31;84.57;101491.97;4999296;28;20034;-85
2021/04/02 07:47:35;;;;;;;33.33;13.85;;;5.20;99.90;;;6.36;84.92;101489.91;4997561;28;20026;-83
2021/04/02 07:50:02;;;;;;;46.83;21.58;;;5.20;99.90;;;6.36;85.01;101494.63;4996674;28;20035;-83
2021/04/02 07:52:40;;;;;;;36.45;16.92;;;5.30;99.90;;;6.51;84.55;101496.25;4996951;28;20027;-83
2021/04/02 07:55:19;;;;;;;31.42;16.42;;;5.30;99.90;;;6.62;83.83;101494.91;4996942;28;20077;-82
2021/04/02 07:58:06;;;;;;;33.20;19.30;;;5.40;99.90;;;6.60;82.56;101492.44;4997055;28;20038;-84
2021/04/02 08:00:35;;;;;;;30.70;18.17;;;5.40;99.90;;;6.77;82.58;101502.91;4996877;28;20030;-82
2021/04/02 08:03:15;;;;;;;42.95;22.40;;;5.50;99.90;;;6.89;81.92;101495.66;4997304;28;20390;-84
2021/04/02 08:06:27;;;;;;;59.13;32.05;;;5.60;99.90;;;6.89;81.19;101495.66;4999515;28;20026;-84
2021/04/02 08:08:53;;;;;;;64.63;33.13;;;5.70;99.90;;;6.88;81.85;101505.13;5011659;28;20125;-83
2021/04/02 08:11:30;;;;;;;64.93;34.15;;;5.70;99.90;;;6.84;81.31;101508.81;5017378;28;20092;-84
2021/04/02 08:14:09;;;;;;;67.60;34.25;;;5.70;99.90;;;6.66;81.90;101507.84;5020072;28;20022;-86
2021/04/02 08:16:56;;;;;;;43.03;22.92;;;5.60;99.90;;;6.70;82.30;101499.72;5021020;28;20089;-84
2021/04/02 08:19:34;;;;;;;41.55;21.42;;;5.60;99.90;;;6.80;82.19;101510.59;5020792;28;20026;-85
2021/04/02 08:22:07;;;;;;;43.13;20.77;;;5.60;99.90;;;6.92;81.67;101507.28;5017997;28;20316;-83
2021/04/02 08:24:44;;;;;;;36.08;19.77;;;5.70;99.90;;;7.01;80.95;101509.00;5019094;28;20072;-86
2021/04/02 08:27:12;;;;;;;55.85;28.67;;;5.80;99.90;;;7.00;80.70;101503.78;5018539;28;20030;-86
2021/04/02 08:29:42;;;;;;;51.35;25.77;;;5.90;99.90;;;7.12;80.51;101502.06;5017335;28;20057;-85
2021/04/02 08:32:15;;;;;;;51.22;27.00;;;6.00;99.90;;;7.37;80.40;101512.56;5017112;28;20037;-82
2021/04/02 08:34:43;;;;;;;70.40;29.75;;;6.10;99.90;;;7.32;79.10;101521.00;5025034;28;20029;-84
2021/04/02 08:37:59;;;;;;;52.70;27.63;;;6.10;99.90;;;7.57;78.90;101515.97;5018767;28;20095;-85
2021/04/02 08:40:26;;;;;;;59.30;29.20;;;6.30;99.90;;;7.64;78.05;101514.38;5027987;28;20103;-84
2021/04/02 08:43:07;;;;;;;60.25;31.98;;;6.40;99.90;;;7.81;77.60;101522.81;5030515;28;20052;-83
2021/04/02 08:45:39;;;;;;;53.25;29.30;;;6.50;99.90;;;7.91;76.63;101527.28;5030663;28;20509;-84
2021/04/02 08:48:21;;;;;;;43.15;24.20;;;6.60;99.90;;;8.14;75.21;101519.72;5030056;28;20044;-85
2021/04/02 08:50:49;;;;;;;36.28;21.52;;;6.80;99.90;;;8.42;74.30;101518.38;5032485;28;20042;-84
2021/04/02 08:53:15;;;;;;;34.75;18.05;;;7.00;99.90;;;8.53;72.60;101521.69;5031514;28;20048;-84
2021/04/02 08:55:48;;;;;;;33.70;18.70;;;7.10;99.90;;;8.54;72.07;101518.56;5033313;28;20034;-84
2021/04/02 08:58:14;;;;;;;33.47;19.05;;;7.20;99.90;;;8.64;72.29;101523.84;5019592;28;20034;-83
2021/04/02 09:00:41;;;;;;;35.22;20.75;;;7.20;99.90;;;8.74;70.87;101519.94;5035119;28;20050;-81
2021/04/02 09:03:07;;;;;;;35.13;22.25;;;7.40;99.90;;;8.71;69.88;101520.56;5033332;28;20073;-82
2021/04/02 09:05:34;;;;;;;36.97;23.45;;;7.50;99.90;;;8.91;69.16;101515.22;5031694;28;20037;-84
2021/04/02 09:08:00;;;;;;;48.67;31.27;;;7.60;99.90;;;9.06;69.66;101516.69;5023717;28;20053;-84
2021/04/02 09:10:27;;;;;;;57.10;35.47;;;7.70;99.90;;;9.11;69.07;101518.50;5011778;28;20066;-84
2021/04/02 09:12:56;;;;;;;57.83;34.35;;;7.80;99.90;;;9.12;68.75;101509.00;5007195;28;20042;-83
2021/04/02 09:15:28;;;;;;;27.88;17.38;;;7.80;99.90;;;8.72;69.54;101516.66;5002515;28;20040;-83
2021/04/02 09:18:13;;;;;;;30.77;19.42;;;7.60;99.90;;;8.67;70.45;101517.63;5001616;28;20034;-85
2021/04/02 09:20:40;;;;;;;25.33;15.73;;;7.50;99.90;;;8.62;70.14;101514.19;5001319;28;20030;-87
2021/04/02 09:23:11;;;;;;;24.23;14.18;;;7.50;99.90;;;8.89;69.68;101513.91;5001803;28;20034;-86
2021/04/02 09:26:00;;;;;;;30.13;14.35;;;7.60;99.90;;;8.91;69.56;101503.25;5001984;28;20026;-85
2021/04/02 09:28:27;;;;;;;18.58;9.00;;;7.70;99.90;;;8.72;69.50;101513.88;5001117;28;20033;-83
2021/04/02 09:31:19;;;;;;;24.23;10.77;;;7.50;99.90;;;8.63;70.30;101522.22;5001199;28;20026;-87
2021/04/02 09:33:51;;;;;;;20.60;12.10;;;7.40;99.90;;;8.50;70.06;101519.56;4998376;28;20027;-82
2021/04/02 09:36:21;;;;;;;19.73;9.00;;;7.30;99.90;;;8.31;70.85;101525.41;5001016;28;20389;-84
2021/04/02 09:38:49;;;;;;;14.38;6.45;;;7.20;99.90;;;8.15;71.46;101515.81;5000644;28;20046;-85
2021/04/02 09:41:25;;;;;;;13.18;6.35;;;7.00;99.90;;;8.10;72.53;101518.72;5011066;28;20057;-84
2021/04/02 09:43:53;;;;;;;12.23;5.90;;;6.90;99.90;;;8.03;72.66;101504.47;5014892;28;20206;-83
2021/04/02 09:46:48;;;;;;;12.48;5.18;;;6.80;99.90;;;7.97;72.97;101515.72;5010574;28;20053;-85
2021/04/02 09:49:23;;;;;;;11.43;4.82;;;6.80;99.90;;;7.99;72.49;101520.16;5009518;28;20466;-85
2021/04/02 09:51:54;;;;;;;8.43;4.70;;;6.70;99.90;;;7.96;73.23;101513.25;5007354;28;20030;-88
2021/04/02 09:54:25;;;;;;;12.45;4.78;;;6.70;99.90;;;8.10;72.23;101508.41;5007150;28;20038;-85
2021/04/02 09:57:05;;;;;;;11.98;5.57;;;6.90;99.90;;;8.42;70.89;101510.03;5009860;28;20030;-86
2021/04/02 09:59:35;;;;;;;12.60;4.82;;;7.00;99.90;;;8.61;70.54;101506.97;5008738;28;20034;-86
2021/04/02 10:02:04;;;;;;;8.55;5.10;;;7.20;99.90;;;8.60;69.90;101497.81;5010289;28;20034;-86
2021/04/02 10:04:33;;;;;;;13.75;5.78;;;7.30;99.90;;;8.58;69.60;101508.44;5008262;28;20026;-86
2021/04/02 10:07:01;;;;;;;12.63;5.30;;;7.30;99.90;;;8.58;70.29;101502.03;5001414;28;20073;-85
2021/04/02 10:09:28;;;;;;;8.50;5.10;;;7.30;99.90;;;8.54;70.55;101501.84;5015385;28;20037;-85
2021/04/02 10:11:55;;;;;;;14.27;5.53;;;7.30;99.90;;;8.47;70.54;101501.53;5024943;28;20026;-83
2021/04/02 10:14:20;;;;;;;14.73;5.10;;;7.20;99.90;;;8.66;71.23;101501.25;5024772;28;20100;-84
2021/04/02 10:16:46;;;;;;;11.88;4.75;;;7.30;99.90;;;8.67;69.05;101497.34;5028147;28;20026;-82
2021/04/02 10:19:16;;;;;;;11.40;4.57;;;7.40;99.90;;;8.78;68.95;101493.06;5027442;28;20021;-82
2021/04/02 10:21:43;;;;;;;10.07;5.32;;;7.50;99.90;;;9.05;68.69;101478.84;5028104;28;20112;-83
2021/04/02 10:24:11;;;;;;;7.97;4.10;;;7.60;99.90;;;9.31;68.13;101487.19;5025446;28;20036;-86
2021/04/02 10:26:37;;;;;;;12.32;4.95;;;7.80;99.90;;;9.33;66.48;101476.53;5022766;28;20022;-84
2021/04/02 10:29:06;;;;;;;9.45;4.45;;;8.00;99.90;;;9.33;66.99;101479.31;5019239;28;20028;-85
2021/04/02 10:31:32;;;;;;;10.75;4.05;;;8.00;99.90;;;9.52;66.82;101490.94;5013358;28;20057;-84
2021/04/02 10:33:58;;;;;;;13.73;4.68;;;8.10;99.90;;;9.14;66.47;101493.59;5015034;28;20029;-86
2021/04/02 10:36:24;;;;;;;8.52;4.82;;;7.90;99.90;;;9.18;67.99;101486.22;5013754;28;20040;-85
2021/04/02 10:38:50;;;;;;;7.78;4.50;;;7.90;99.90;;;9.13;67.50;101496.69;5014530;28;20485;-84
2021/04/02 10:41:17;;;;;;;11.55;4.78;;;7.80;99.90;;;8.99;67.68;101483.75;5014132;28;20061;-84
2021/04/02 10:43:44;;;;;;;8.68;5.20;;;7.70;99.90;;;8.96;68.33;101486.34;5014558;28;20367;-84
2021/04/02 10:46:12;;;;;;;10.05;4.22;;;7.60;99.90;;;8.94;67.52;101489.50;5015423;28;20018;-84
2021/04/02 10:48:38;;;;;;;15.13;6.18;;;7.60;99.90;;;9.10;67.44;101489.00;5014778;28;20072;-85
2021/04/02 10:51:05;;;;;;;12.23;6.10;;;7.70;99.90;;;8.90;66.73;101480.13;5012186;28;20508;-82
2021/04/02 10:53:31;;;;;;;8.52;4.32;;;7.70;99.90;;;8.82;66.93;101486.53;5021238;28;20038;-83
2021/04/02 10:56:00;;;;;;;13.30;4.88;;;7.60;99.90;;;8.86;67.49;101493.06;5026419;28;20045;-84
2021/04/02 10:58:28;;;;;;;9.93;5.18;;;7.60;99.90;;;8.86;67.38;101489.50;5022066;28;20089;-85
2021/04/02 11:00:55;;;;;;;12.27;4.93;;;7.60;99.90;;;8.90;67.50;101496.03;5022845;28;20093;-83
2021/04/02 11:03:22;;;;;;;13.45;5.20;;;7.50;99.90;;;8.83;67.65;101499.28;5022518;28;20517;-84
2021/04/02 11:05:48;;;;;;;11.57;4.60;;;7.60;99.90;;;8.84;67.43;101492.59;5026243;28;20474;-84
2021/04/02 11:08:14;;;;;;;7.53;4.47;;;7.60;99.90;;;9.05;66.99;101484.41;5025086;28;20493;-83
2021/04/02 11:10:40;;;;;;;99.90;40.65;;;7.70;99.90;;;9.26;65.87;101484.56;5024907;28;20445;-84
2021/04/02 11:13:06;;;;;;;13.73;7.85;;;7.80;99.90;;;9.06;66.24;101486.03;5022475;28;20038;-85
2021/04/02 11:15:32;;;;;;;6.25;3.75;;;7.70;99.90;;;8.94;65.69;101492.28;5018806;28;20488;-85
2021/04/02 11:17:58;;;;;;;13.40;4.68;;;7.60;99.90;;;8.93;66.13;101475.88;5022345;28;20080;-85
2021/04/02 11:20:26;;;;;;;8.80;4.47;;;7.60;99.90;;;8.88;66.28;101476.88;5021146;28;20029;-84
2021/04/02 11:22:52;;;;;;;9.25;4.03;;;7.50;99.90;;;8.97;65.50;101479.66;5023469;28;20065;-86
2021/04/02 11:25:18;;;;;;;12.48;4.35;;;7.50;99.90;;;8.93;65.98;101471.13;5022598;28;20034;-85
2021/04/02 11:30:46;;;;;;;7.55;3.83;;;7.60;99.90;;;8.74;67.06;101472.56;5028045;28;20177;-83
2021/04/02 11:33:12;;;;;;;9.18;3.78;;;7.40;99.90;;;8.63;67.36;101483.22;5021174;28;20038;-83
2021/04/02 11:35:38;;;;;;;10.77;3.85;;;7.40;99.90;;;8.54;67.66;101485.16;5023020;28;20030;-83
2021/04/02 11:38:07;;;;;;;12.70;4.75;;;7.30;99.90;;;8.34;68.76;101494.13;5020639;28;20458;-84
2021/04/02 11:40:34;;;;;;;5.88;4.15;;;7.20;99.90;;;8.35;69.22;101495.75;5023282;28;20040;-83
2021/04/02 11:43:00;;;;;;;140.88;59.50;;;7.10;99.90;;;8.34;68.21;101492.16;5024958;28;20041;-83
2021/04/02 11:45:26;;;;;;;11.32;5.30;;;7.10;99.90;;;8.27;68.26;101499.31;5024425;28;20038;-84
2021/04/02 11:47:52;;;;;;;13.05;5.07;;;7.10;99.90;;;8.40;68.05;101492.84;5025991;28;20398;-83
2021/04/02 11:50:18;;;;;;;10.02;5.10;;;7.10;99.90;;;8.27;67.99;101480.66;5026011;28;20041;-85
2021/04/02 11:52:44;;;;;;;12.63;6.43;;;7.00;99.90;;;8.40;67.94;101484.47;5023996;28;20030;-84
2021/04/02 11:55:12;;;;;;;15.30;7.90;;;7.10;99.90;;;8.19;67.82;101484.22;5025681;28;20053;-85
2021/04/02 11:57:38;;;;;;;8.63;5.40;;;7.10;99.90;;;8.15;68.21;101494.38;5024538;28;20026;-84
2021/04/02 12:00:15;;;;;;;12.82;6.57;;;7.10;99.90;;;8.13;67.61;101499.41;5022058;28;20037;-84
2021/04/02 12:02:41;;;;;;;13.18;5.88;;;7.00;99.90;;;7.99;68.29;101497.88;5020719;28;20068;-85
2021/04/02 12:05:09;;;;;;;13.50;5.88;;;7.00;99.90;;;8.10;67.98;101497.28;5018721;28;20478;-85
2021/04/02 12:07:36;;;;;;;17.65;7.90;;;7.00;99.90;;;8.07;68.14;101499.88;5015102;28;20030;-85
2021/04/02 12:10:05;;;;;;;10.52;5.53;;;7.00;99.90;;;8.17;67.48;101502.38;4996565;28;20026;-86
2021/04/02 12:12:31;;;;;;;10.25;5.00;;;7.00;99.90;;;8.25;67.28;101496.03;4997609;28;20034;-86
2021/04/02 12:14:58;;;;;;;14.20;6.70;;;7.10;99.90;;;8.33;66.72;101489.69;4998329;28;20383;-84
2021/04/02 12:17:24;;;;;;;14.95;6.13;;;7.20;99.90;;;8.63;65.67;101483.22;4995890;28;20053;-86
2021/04/02 12:19:50;;;;;;;9.65;4.82;;;7.40;99.90;;;9.26;63.22;101482.59;4995721;28;20041;-85
2021/04/02 12:22:16;;;;;;;42.70;18.15;;;7.80;99.90;;;9.83;61.45;101477.56;4996907;28;20038;-86
2021/04/02 12:24:41;;;;;;;11.70;4.60;;;8.20;99.90;;;10.32;58.97;101476.06;4996124;28;20052;-85
2021/04/02 12:27:08;;;;;;;11.15;4.80;;;8.60;99.90;;;10.47;57.50;101474.66;4995737;28;20035;-85
2021/04/02 12:29:34;;;;;;;12.55;5.05;;;9.00;99.90;;;10.77;56.39;101484.66;4996242;28;20366;-83
2021/04/02 12:32:02;;;;;;;6.30;3.92;;;9.30;99.90;;;10.55;56.23;101487.78;4997472;28;20065;-88
2021/04/02 12:34:28;;;;;;;8.23;4.95;;;9.20;99.90;;;10.21;57.75;101474.00;4998438;28;20080;-81
2021/04/02 12:36:54;;;;;;;14.00;4.72;;;9.10;99.90;;;10.18;58.32;101466.31;4998110;28;20382;-85
2021/04/02 12:39:20;;;;;;;6.72;4.13;;;9.10;99.90;;;10.43;56.59;101468.13;5001015;28;20034;-83
2021/04/02 12:41:46;;;;;;;13.93;4.78;;;9.20;99.90;;;10.39;56.19;101459.63;4997058;28;20026;-84
2021/04/02 12:44:12;;;;;;;9.57;4.85;;;9.20;99.90;;;10.41;55.75;101460.09;4997181;28;20042;-85
2021/04/02 12:46:38;;;;;;;10.43;3.97;;;9.20;99.90;;;10.31;56.73;101471.63;4997564;28;20126;-84
2021/04/02 12:49:04;;;;;;;7.35;3.45;;;9.10;99.90;;;10.37;56.14;101472.28;4996176;28;20026;-84
2021/04/02 12:51:30;;;;;;;8.05;4.28;;;9.00;99.90;;;10.35;56.22;101466.19;4995991;28;20053;-85
2021/04/02 12:53:55;;;;;;;6.95;3.60;;;9.00;99.90;;;10.32;56.40;101470.50;4996317;28;20270;-86
2021/04/02 12:56:22;;;;;;;9.77;3.60;;;9.00;99.90;;;10.45;55.75;101474.19;4997033;28;20038;-85
2021/04/02 12:58:48;;;;;;;7.72;3.08;;;9.10;99.90;;;10.44;54.20;101459.41;4997778;28;20062;-83
2021/04/02 13:01:14;;;;;;;6.97;3.45;;;9.10;99.90;;;10.19;53.95;101459.53;4995583;28;20034;-82
2021/04/02 13:03:40;;;;;;;10.70;3.50;;;9.10;99.90;;;10.14;54.35;101470.91;4994818;28;20037;-82
2021/04/02 13:06:07;;;;;;;11.93;3.70;;;9.00;99.90;;;10.04;55.47;101467.31;4995597;28;20030;-83
2021/04/02 13:08:34;;;;;;;6.97;3.33;;;8.90;99.90;;;9.98;56.27;101473.41;5005917;28;20025;-82
2021/04/02 13:11:00;;;;;;;10.23;2.92;;;8.90;99.90;;;9.86;55.31;101471.31;5016645;28;20061;-83
2021/04/02 13:13:27;;;;;;;9.77;3.17;;;8.80;99.90;;;9.88;55.66;101473.78;5022712;28;20040;-84
2021/04/02 13:15:53;;;;;;;8.60;3.00;;;8.70;99.90;;;9.67;55.73;101473.66;5014619;28;20034;-82
2021/04/02 13:18:19;;;;;;;10.63;3.65;;;8.60;99.90;;;9.41;55.62;101470.94;5015162;28;20026;-84
2021/04/02 13:20:45;;;;;;;9.07;2.90;;;8.50;99.90;;;9.39;55.72;101478.00;5014928;28;20033;-85
2021/04/02 13:23:11;;;;;;;9.88;2.85;;;8.40;99.90;;;9.52;55.51;101468.63;5014271;28;20026;-84
2021/04/02 13:25:37;;;;;;;7.70;3.20;;;8.40;99.90;;;9.29;56.18;101462.41;5014806;28;20022;-84
2021/04/02 13:28:05;;;;;;;13.27;3.03;;;8.30;99.90;;;9.42;55.65;101457.81;5014922;28;20443;-84
2021/04/02 13:30:33;;;;;;;7.03;4.10;;;8.40;99.90;;;9.72;55.29;101455.94;5015033;28;20393;-84
2021/04/02 13:33:02;;;;;;;10.02;4.47;;;8.50;99.90;;;9.85;54.60;101457.69;5016042;28;20025;-85
2021/04/02 13:35:30;;;;;;;10.48;4.85;;;8.70;99.90;;;10.20;53.76;101459.22;5014536;28;20034;-84
2021/04/02 13:37:59;;;;;;;9.32;2.75;;;9.00;99.90;;;10.92;52.27;101463.66;5015010;28;20056;-83
2021/04/02 13:40:29;;;;;;;7.85;2.70;;;9.50;99.90;;;10.72;51.83;101453.31;5015308;28;20040;-84
2021/04/02 13:42:56;;;;;;;7.38;2.45;;;9.60;99.90;;;10.86;51.68;101445.47;5014782;28;20304;-84
2021/04/02 13:45:22;;;;;;;10.73;2.65;;;9.60;99.90;;;10.54;52.48;101442.25;5015416;28;20466;-85
2021/04/02 13:47:48;;;;;;;11.75;3.13;;;9.50;99.90;;;10.72;52.29;101433.75;5016341;28;20042;-84
2021/04/02 13:50:26;;;;;;;7.93;3.05;;;9.40;99.90;;;10.63;52.10;101431.00;5017070;28;20026;-83
2021/04/02 13:52:53;;;;;;;8.13;3.40;;;9.40;99.90;;;10.85;52.12;101432.69;5018239;28;20030;-84
2021/04/02 13:55:20;;;;;;;6.85;2.95;;;9.50;99.90;;;10.72;51.26;101426.22;5016092;28;20084;-83
2021/04/02 13:57:51;;;;;;;6.38;2.33;;;9.50;99.90;;;10.95;51.19;101423.84;5017112;28;20030;-83
2021/04/02 14:00:26;;;;;;;5.03;2.55;;;9.70;99.90;;;11.28;50.31;101401.50;5015421;28;20030;-85
2021/04/02 14:02:53;;;;;;;5.15;2.88;;;9.80;99.90;;;11.40;49.71;101401.53;5016934;28;20097;-85
2021/04/02 14:05:20;;;;;;;9.45;2.70;;;10.00;99.90;;;11.11;50.38;101399.69;5015817;28;20030;-84
2021/04/02 14:07:47;;;;;;;5.28;2.83;;;10.00;99.90;;;11.31;49.92;101395.22;5011717;28;20022;-84
2021/04/02 14:10:37;;;;;;;8.27;2.25;;;10.00;99.90;;;11.30;48.87;101402.00;4996826;28;20161;-83
2021/04/02 14:13:10;;;;;;;7.80;2.60;;;10.00;98.80;;;11.24;49.29;101406.19;4996387;28;20034;-85
2021/04/02 14:15:39;;;;;;;8.32;2.83;;;9.90;99.00;;;11.07;49.55;101391.22;4997148;28;20045;-84
2021/04/02 14:18:09;;;;;;;5.57;3.03;;;9.80;99.40;;;11.17;49.65;101386.34;4996112;28;20035;-85
2021/04/02 14:20:46;;;;;;;10.50;3.10;;;9.90;99.90;;;11.29;49.50;101380.78;4998745;28;20044;-86
2021/04/02 14:23:13;;;;;;;11.45;3.30;;;10.10;99.00;;;11.32;49.27;101375.31;4998088;28;20038;-85
2021/04/02 14:25:40;;;;;;;5.57;2.40;;;10.20;98.10;;;11.31;49.36;101376.47;4980480;28;20042;-85
2021/04/02 14:28:09;;;;;;;8.52;3.10;;;10.10;98.70;;;11.50;49.02;101378.72;4997254;28;20026;-86
2021/04/02 14:30:45;;;;;;;12.88;2.58;;;10.20;97.40;;;11.43;49.02;101378.50;4995297;28;20030;-85
2021/04/02 14:33:12;;;;;;;6.57;2.75;;;10.20;97.70;;;11.26;49.26;101381.47;4995511;28;20033;-84
2021/04/02 14:35:41;;;;;;;8.30;3.10;;;10.10;97.90;;;10.64;51.93;101379.59;4997377;28;20022;-85
2021/04/02 14:38:14;;;;;;;10.07;3.00;;;9.80;99.90;;;10.54;51.95;101375.22;4997938;28;20022;-84
2021/04/02 14:40:44;;;;;;;9.73;3.08;;;9.50;99.90;;;10.47;51.93;101374.94;4995499;28;20097;-84
2021/04/02 14:43:13;;;;;;;11.38;3.28;;;9.40;99.90;;;10.58;50.67;101376.19;4995897;28;20242;-84
2021/04/02 14:45:40;;;;;;;10.30;2.97;;;9.50;99.90;;;11.14;51.33;101368.28;4994524;28;20092;-84
2021/04/02 14:48:07;;;;;;;9.93;3.38;;;9.80;99.90;;;11.93;48.52;101372.63;4995030;28;20026;-85
2021/04/02 14:50:36;;;;;;;9.57;2.60;;;10.40;98.40;;;11.47;48.43;101376.63;4995376;28;20030;-85
2021/04/02 14:53:04;;;;;;;12.23;3.25;;;10.40;95.20;;;11.22;49.64;101378.53;4996035;28;20038;-86
2021/04/02 14:55:31;;;;;;;9.68;3.00;;;10.20;96.80;;;10.89;50.44;101386.09;4994941;28;20057;-84
2021/04/02 14:57:57;;;;;;;10.57;2.90;;;9.90;98.20;;;10.74;50.62;101392.31;4996403;28;20030;-83
2021/04/02 15:00:26;;;;;;;7.38;2.80;;;9.70;99.50;;;10.63;51.01;101397.50;4995547;28;20360;-85
2021/04/02 15:02:55;;;;;;;13.82;3.33;;;9.60;99.90;;;10.68;51.56;101382.50;4997317;28;20458;-85
2021/04/02 15:05:23;;;;;;;7.43;2.63;;;9.50;99.90;;;10.65;51.14;101381.22;4996587;28;20026;-84
2021/04/02 15:07:50;;;;;;;5.50;2.47;;;9.50;99.90;;;10.67;51.37;101380.88;5001564;28;20030;-83
2021/04/02 15:10:22;;;;;;;22.30;3.58;;;9.50;99.90;;;10.65;51.74;101386.00;5016331;28;20101;-85
2021/04/02 15:12:51;;;;;;;9.65;3.15;;;9.40;99.90;;;10.29;52.37;101383.78;5015025;28;20029;-85
2021/04/02 15:15:21;;;;;;;11.98;3.72;;;9.30;99.90;;;10.24;52.92;101387.56;5015648;28;20029;-83
2021/04/02 15:17:48;;;;;;;7.10;2.88;;;9.20;99.90;;;10.14;53.66;101395.53;5017368;28;20033;-83
2021/04/02 15:20:17;;;;;;;11.85;3.20;;;9.00;99.90;;;9.98;53.56;101386.91;5016119;28;20111;-85
2021/04/02 15:22:44;;;;;;;9.98;3.28;;;9.00;99.90;;;9.71;55.24;101398.50;5016291;28;20045;-86
2021/04/02 15:25:13;;;;;;;9.38;2.90;;;8.70;99.90;;;9.40;55.96;101394.03;5016584;28;20120;-84
2021/04/02 15:27:42;;;;;;;9.45;3.65;;;8.50;99.90;;;9.54;55.73;101397.41;5019693;28;20061;-84
2021/04/02 15:30:13;;;;;;;14.25;3.38;;;8.50;99.90;;;9.34;55.56;101403.69;5020978;28;20076;-86
2021/04/02 15:32:39;;;;;;;7.97;3.40;;;8.50;99.90;;;9.45;55.81;101413.34;5023901;28;20624;-84
2021/04/02 15:35:08;;;;;;;9.13;2.63;;;8.40;99.90;;;9.30;55.93;101424.22;5013839;28;20033;-84
2021/04/02 15:37:46;;;;;;;9.05;3.00;;;8.40;99.90;;;9.27;56.74;101414.56;5014672;28;20030;-83
2021/04/02 15:40:14;;;;;;;13.25;4.28;;;8.30;99.90;;;9.16;57.35;101416.03;5014881;28;20060;-83
2021/04/02 15:42:40;;;;;;;10.55;2.85;;;8.20;99.90;;;9.12;57.13;101408.69;5016477;28;20083;-85
2021/04/02 15:45:10;;;;;;;12.80;3.22;;;8.10;99.90;;;9.25;57.41;101408.47;5016099;28;20081;-84
2021/04/02 15:47:38;;;;;;;8.27;3.13;;;8.10;99.90;;;9.19;57.50;101409.81;5019750;28;20022;-85
2021/04/02 15:50:16;;;;;;;9.85;2.75;;;8.10;99.90;;;9.12;57.89;101411.47;5017654;28;20029;-85
2021/04/02 15:52:45;;;;;;;15.75;4.03;;;8.10;99.90;;;9.12;58.29;101409.47;5017649;28;20409;-85
2021/04/02 15:55:17;;;;;;;11.73;3.45;;;8.00;99.90;;;9.06;58.56;101408.00;5019600;28;20026;-84
2021/04/02 15:57:45;;;;;;;13.85;3.08;;;8.00;99.90;;;9.13;58.58;101407.50;5018554;28;20028;-83
2021/04/02 16:00:17;;;;;;;12.98;3.95;;;8.00;99.90;;;9.14;58.72;101411.94;5019155;28;20034;-86